sensor_id;sensor_type;location;lat;lon;timestamp;temperature;humidity
13091;DHT22;6611;52.604;13.438;2022-12-18T00:04:18;-3.74;86.61
13091;DHT22;6611;52.604;13.438;2022-12-18T00:09:22;-3.72;86.52
13091;DHT22;6611;52.604;13.438;2022-12-18T00:14:24;-3.83;86.83
13091;DHT22;6611;52.604;13.438;2022-12-18T00:19:26;-3.82;86.82
13091;DHT22;6611;52.604;13.438;2022-12-18T00:24:30;-3.86;86.33
13091;DHT22;6611;52.604;13.438;2022-12-18T00:29:32;-3.97;87.07
13091;DHT22;6611;52.604;13.438;2022-12-18T00:34:34;-4.00;86.67
13091;DHT22;6611;52.604;13.438;2022-12-18T00:39:37;-4.21;87.20
13091;DHT22;6611;52.604;13.438;2022-12-18T00:44:39;-4.24;87.14
13091;DHT22;6611;52.604;13.438;2022-12-18T00:49:41;-4.17;87.04
13091;DHT22;6611;52.604;13.438;2022-12-18T00:54:44;-4.31;87.35
13091;DHT22;6611;52.604;13.438;2022-12-18T00:59:46;-4.25;87.51
13091;DHT22;6611;52.604;13.438;2022-12-18T01:04:48;-4.21;87.37
13091;DHT22;6611;52.604;13.438;2022-12-18T01:09:51;-4.11;86.59
13091;DHT22;6611;52.604;13.438;2022-12-18T01:14:53;-4.11;86.39
13091;DHT22;6611;52.604;13.438;2022-12-18T01:19:55;-4.15;85.94
13091;DHT22;6611;52.604;13.438;2022-12-18T01:24:58;-4.37;86.20
13091;DHT22;6611;52.604;13.438;2022-12-18T01:29:59;-4.56;86.73
13091;DHT22;6611;52.604;13.438;2022-12-18T01:35:01;-4.61;87.16
13091;DHT22;6611;52.604;13.438;2022-12-18T01:40:06;-4.62;86.93
13091;DHT22;6611;52.604;13.438;2022-12-18T01:45:23;-4.65;86.29
13091;DHT22;6611;52.604;13.438;2022-12-18T01:50:30;-4.68;86.54
13091;DHT22;6611;52.604;13.438;2022-12-18T01:55:37;-4.68;86.77
13091;DHT22;6611;52.604;13.438;2022-12-18T02:00:40;-4.65;86.74
13091;DHT22;6611;52.604;13.438;2022-12-18T02:05:46;-4.52;86.48
13091;DHT22;6611;52.604;13.438;2022-12-18T02:11:00;-4.48;86.32
13091;DHT22;6611;52.604;13.438;2022-12-18T02:16:09;-4.31;85.91
13091;DHT22;6611;52.604;13.438;2022-12-18T02:21:23;-4.44;85.17
13091;DHT22;6611;52.604;13.438;2022-12-18T02:26:31;-4.59;86.46
13091;DHT22;6611;52.604;13.438;2022-12-18T02:31:39;-4.54;86.10
13091;DHT22;6611;52.604;13.438;2022-12-18T02:36:43;-4.61;85.71
13091;DHT22;6611;52.604;13.438;2022-12-18T02:41:48;-4.75;85.77
13091;DHT22;6611;52.604;13.438;2022-12-18T02:46:52;-4.68;85.91
13091;DHT22;6611;52.604;13.438;2022-12-18T02:51:58;-4.72;85.85
13091;DHT22;6611;52.604;13.438;2022-12-18T02:57:11;-4.64;85.75
13091;DHT22;6611;52.604;13.438;2022-12-18T03:02:20;-4.72;86.37
13091;DHT22;6611;52.604;13.438;2022-12-18T03:07:27;-4.93;86.58
13091;DHT22;6611;52.604;13.438;2022-12-18T03:12:38;-4.89;86.97
13091;DHT22;6611;52.604;13.438;2022-12-18T03:17:45;-4.86;86.16
13091;DHT22;6611;52.604;13.438;2022-12-18T03:22:51;-4.82;85.93
13091;DHT22;6611;52.604;13.438;2022-12-18T03:27:56;-4.94;86.64
13091;DHT22;6611;52.604;13.438;2022-12-18T03:33:05;-5.12;86.93
13091;DHT22;6611;52.604;13.438;2022-12-18T03:38:09;-4.97;86.76
13091;DHT22;6611;52.604;13.438;2022-12-18T03:43:18;-5.21;87.95
13091;DHT22;6611;52.604;13.438;2022-12-18T03:48:27;-5.10;87.46
13091;DHT22;6611;52.604;13.438;2022-12-18T03:53:35;-5.01;87.47
13091;DHT22;6611;52.604;13.438;2022-12-18T03:58:40;-4.93;87.19
13091;DHT22;6611;52.604;13.438;2022-12-18T04:03:44;-5.00;87.07
13091;DHT22;6611;52.604;13.438;2022-12-18T04:08:47;-4.93;86.59
13091;DHT22;6611;52.604;13.438;2022-12-18T04:13:55;-5.14;86.43
13091;DHT22;6611;52.604;13.438;2022-12-18T04:18:57;-5.01;86.47
13091;DHT22;6611;52.604;13.438;2022-12-18T04:23:59;-4.83;85.95
13091;DHT22;6611;52.604;13.438;2022-12-18T04:29:02;-5.00;85.69
13091;DHT22;6611;52.604;13.438;2022-12-18T04:34:04;-4.93;86.12
13091;DHT22;6611;52.604;13.438;2022-12-18T04:39:06;-5.25;86.60
13091;DHT22;6611;52.604;13.438;2022-12-18T04:44:09;-5.14;86.64
13091;DHT22;6611;52.604;13.438;2022-12-18T04:49:11;-5.11;86.02
13091;DHT22;6611;52.604;13.438;2022-12-18T04:54:12;-5.20;85.79
13091;DHT22;6611;52.604;13.438;2022-12-18T04:59:16;-5.22;86.20
13091;DHT22;6611;52.604;13.438;2022-12-18T05:04:17;-5.25;86.18
13091;DHT22;6611;52.604;13.438;2022-12-18T05:09:19;-5.24;86.16
13091;DHT22;6611;52.604;13.438;2022-12-18T05:14:22;-5.34;85.81
13091;DHT22;6611;52.604;13.438;2022-12-18T05:19:24;-5.35;86.40
13091;DHT22;6611;52.604;13.438;2022-12-18T05:24:26;-5.69;87.27
13091;DHT22;6611;52.604;13.438;2022-12-18T05:29:29;-5.60;87.26
13091;DHT22;6611;52.604;13.438;2022-12-18T05:34:30;-5.51;86.44
13091;DHT22;6611;52.604;13.438;2022-12-18T05:39:33;-5.59;86.51
13091;DHT22;6611;52.604;13.438;2022-12-18T05:44:36;-5.48;86.39
13091;DHT22;6611;52.604;13.438;2022-12-18T05:49:38;-5.46;86.50
13091;DHT22;6611;52.604;13.438;2022-12-18T05:54:40;-5.49;86.22
13091;DHT22;6611;52.604;13.438;2022-12-18T05:59:43;-5.76;87.60
13091;DHT22;6611;52.604;13.438;2022-12-18T06:04:44;-5.60;87.30
13091;DHT22;6611;52.604;13.438;2022-12-18T06:09:46;-5.53;87.22
13091;DHT22;6611;52.604;13.438;2022-12-18T06:14:49;-5.59;87.65
13091;DHT22;6611;52.604;13.438;2022-12-18T06:19:51;-5.40;87.13
13091;DHT22;6611;52.604;13.438;2022-12-18T06:24:53;-5.42;87.03
13091;DHT22;6611;52.604;13.438;2022-12-18T06:29:56;-5.53;87.34
13091;DHT22;6611;52.604;13.438;2022-12-18T06:34:57;-5.42;86.97
13091;DHT22;6611;52.604;13.438;2022-12-18T06:39:59;-5.28;86.87
13091;DHT22;6611;52.604;13.438;2022-12-18T06:45:03;-5.28;87.03
13091;DHT22;6611;52.604;13.438;2022-12-18T06:50:05;-5.45;87.93
13091;DHT22;6611;52.604;13.438;2022-12-18T06:55:07;-5.27;87.55
13091;DHT22;6611;52.604;13.438;2022-12-18T07:00:11;-5.25;87.16
13091;DHT22;6611;52.604;13.438;2022-12-18T07:05:14;-5.21;86.95
13091;DHT22;6611;52.604;13.438;2022-12-18T07:10:15;-5.35;87.05
13091;DHT22;6611;52.604;13.438;2022-12-18T07:15:18;-5.36;87.42
13091;DHT22;6611;52.604;13.438;2022-12-18T07:20:20;-5.31;87.00
13091;DHT22;6611;52.604;13.438;2022-12-18T07:25:22;-5.35;87.49
13091;DHT22;6611;52.604;13.438;2022-12-18T07:30:25;-5.38;87.49
13091;DHT22;6611;52.604;13.438;2022-12-18T07:35:26;-5.36;87.32
13091;DHT22;6611;52.604;13.438;2022-12-18T07:40:28;-5.15;86.96
13091;DHT22;6611;52.604;13.438;2022-12-18T07:45:31;-5.12;86.79
13091;DHT22;6611;52.604;13.438;2022-12-18T07:50:33;-5.28;87.01
13091;DHT22;6611;52.604;13.438;2022-12-18T07:55:34;-5.59;88.04
13091;DHT22;6611;52.604;13.438;2022-12-18T08:00:38;-5.38;87.89
13091;DHT22;6611;52.604;13.438;2022-12-18T08:05:39;-5.22;87.41
13091;DHT22;6611;52.604;13.438;2022-12-18T08:10:41;-5.25;87.62
13091;DHT22;6611;52.604;13.438;2022-12-18T08:15:44;-5.18;87.41
13091;DHT22;6611;52.604;13.438;2022-12-18T08:20:46;-5.01;87.43
13091;DHT22;6611;52.604;13.438;2022-12-18T08:25:47;-5.07;86.91
13091;DHT22;6611;52.604;13.438;2022-12-18T08:30:52;-4.99;86.92
13091;DHT22;6611;52.604;13.438;2022-12-18T08:35:54;-5.12;87.15
13091;DHT22;6611;52.604;13.438;2022-12-18T08:40:58;-4.94;86.57
13091;DHT22;6611;52.604;13.438;2022-12-18T08:46:02;-4.93;86.37
13091;DHT22;6611;52.604;13.438;2022-12-18T08:51:04;-5.00;86.26
13091;DHT22;6611;52.604;13.438;2022-12-18T08:56:06;-5.25;86.91
13091;DHT22;6611;52.604;13.438;2022-12-18T09:01:11;-5.38;87.82
13091;DHT22;6611;52.604;13.438;2022-12-18T09:06:14;-5.25;87.77
13091;DHT22;6611;52.604;13.438;2022-12-18T09:11:20;-5.25;87.80
13091;DHT22;6611;52.604;13.438;2022-12-18T09:16:24;-5.14;87.55
13091;DHT22;6611;52.604;13.438;2022-12-18T09:21:29;-5.05;86.93
13091;DHT22;6611;52.604;13.438;2022-12-18T09:26:31;-5.00;87.55
13091;DHT22;6611;52.604;13.438;2022-12-18T09:31:37;-5.01;88.10
13091;DHT22;6611;52.604;13.438;2022-12-18T09:36:39;-4.96;87.66
13091;DHT22;6611;52.604;13.438;2022-12-18T09:41:45;-4.73;87.23
13091;DHT22;6611;52.604;13.438;2022-12-18T09:46:53;-4.68;86.72
13091;DHT22;6611;52.604;13.438;2022-12-18T09:51:58;-4.59;86.95
13091;DHT22;6611;52.604;13.438;2022-12-18T09:57:02;-4.72;87.95
13091;DHT22;6611;52.604;13.438;2022-12-18T10:02:15;-4.51;87.32
13091;DHT22;6611;52.604;13.438;2022-12-18T10:07:19;-4.44;87.44
13091;DHT22;6611;52.604;13.438;2022-12-18T10:12:31;-4.32;87.19
13091;DHT22;6611;52.604;13.438;2022-12-18T10:17:44;-4.20;87.07
13091;DHT22;6611;52.604;13.438;2022-12-18T10:22:52;-4.09;87.22
13091;DHT22;6611;52.604;13.438;2022-12-18T10:28:00;-4.10;86.95
13091;DHT22;6611;52.604;13.438;2022-12-18T10:33:03;-4.00;87.45
13091;DHT22;6611;52.604;13.438;2022-12-18T10:38:19;-3.81;87.01
13091;DHT22;6611;52.604;13.438;2022-12-18T10:43:24;-3.79;87.03
13091;DHT22;6611;52.604;13.438;2022-12-18T10:48:30;-3.79;87.25
13091;DHT22;6611;52.604;13.438;2022-12-18T10:53:33;-3.79;87.68
13091;DHT22;6611;52.604;13.438;2022-12-18T10:58:37;-3.78;87.71
13091;DHT22;6611;52.604;13.438;2022-12-18T11:03:42;-3.68;88.06
13091;DHT22;6611;52.604;13.438;2022-12-18T11:08:57;-3.59;88.05
13091;DHT22;6611;52.604;13.438;2022-12-18T11:14:02;-3.48;87.80
13091;DHT22;6611;52.604;13.438;2022-12-18T11:19:20;-3.40;87.23
13091;DHT22;6611;52.604;13.438;2022-12-18T11:24:27;-3.44;87.30
13091;DHT22;6611;52.604;13.438;2022-12-18T11:29:34;-3.54;87.96
13091;DHT22;6611;52.604;13.438;2022-12-18T11:34:38;-3.41;87.39
13091;DHT22;6611;52.604;13.438;2022-12-18T11:39:42;-3.39;87.18
13091;DHT22;6611;52.604;13.438;2022-12-18T11:44:48;-3.41;86.92
13091;DHT22;6611;52.604;13.438;2022-12-18T11:49:52;-3.71;88.38
13091;DHT22;6611;52.604;13.438;2022-12-18T11:55:00;-3.57;88.28
13091;DHT22;6611;52.604;13.438;2022-12-18T12:00:07;-3.40;87.77
13091;DHT22;6611;52.604;13.438;2022-12-18T12:05:25;-3.36;87.53
13091;DHT22;6611;52.604;13.438;2022-12-18T12:10:39;-3.24;87.11
13091;DHT22;6611;52.604;13.438;2022-12-18T12:15:48;-3.27;87.40
13091;DHT22;6611;52.604;13.438;2022-12-18T12:21:01;-3.16;86.64
13091;DHT22;6611;52.604;13.438;2022-12-18T12:26:07;-3.26;87.01
13091;DHT22;6611;52.604;13.438;2022-12-18T12:31:16;-3.17;87.18
13091;DHT22;6611;52.604;13.438;2022-12-18T12:36:30;-3.10;87.30
13091;DHT22;6611;52.604;13.438;2022-12-18T12:41:35;-2.97;86.32
13091;DHT22;6611;52.604;13.438;2022-12-18T12:47:00;-3.09;86.30
13091;DHT22;6611;52.604;13.438;2022-12-18T12:52:13;-3.26;86.53
13091;DHT22;6611;52.604;13.438;2022-12-18T12:57:19;-3.23;86.66
13091;DHT22;6611;52.604;13.438;2022-12-18T13:02:28;-3.17;86.99
13091;DHT22;6611;52.604;13.438;2022-12-18T13:07:37;-3.26;87.19
13091;DHT22;6611;52.604;13.438;2022-12-18T13:12:51;-3.12;86.56
13091;DHT22;6611;52.604;13.438;2022-12-18T13:18:05;-3.20;86.00
13091;DHT22;6611;52.604;13.438;2022-12-18T13:23:27;-3.36;86.61
13091;DHT22;6611;52.604;13.438;2022-12-18T13:28:51;-3.40;86.99
13091;DHT22;6611;52.604;13.438;2022-12-18T13:34:11;-3.33;86.83
13091;DHT22;6611;52.604;13.438;2022-12-18T13:39:34;-3.46;87.00
13091;DHT22;6611;52.604;13.438;2022-12-18T13:44:39;-3.50;87.05
13091;DHT22;6611;52.604;13.438;2022-12-18T13:49:43;-3.37;87.22
13091;DHT22;6611;52.604;13.438;2022-12-18T13:54:48;-3.31;86.55
13091;DHT22;6611;52.604;13.438;2022-12-18T13:59:54;-3.26;86.59
13091;DHT22;6611;52.604;13.438;2022-12-18T14:04:56;-3.46;86.99
13091;DHT22;6611;52.604;13.438;2022-12-18T14:10:00;-3.59;87.71
13091;DHT22;6611;52.604;13.438;2022-12-18T14:15:03;-3.58;87.97
13091;DHT22;6611;52.604;13.438;2022-12-18T14:20:13;-3.82;88.90
13091;DHT22;6611;52.604;13.438;2022-12-18T14:25:19;-3.65;88.33
13091;DHT22;6611;52.604;13.438;2022-12-18T14:30:26;-3.72;88.72
13091;DHT22;6611;52.604;13.438;2022-12-18T14:35:28;-3.74;88.89
13091;DHT22;6611;52.604;13.438;2022-12-18T14:40:31;-3.55;88.33
13091;DHT22;6611;52.604;13.438;2022-12-18T14:45:34;-3.57;88.46
13091;DHT22;6611;52.604;13.438;2022-12-18T14:50:41;-3.62;88.91
13091;DHT22;6611;52.604;13.438;2022-12-18T14:55:46;-3.76;88.50
13091;DHT22;6611;52.604;13.438;2022-12-18T15:00:49;-3.78;88.76
13091;DHT22;6611;52.604;13.438;2022-12-18T15:05:51;-3.71;88.46
13091;DHT22;6611;52.604;13.438;2022-12-18T15:10:54;-3.79;89.17
13091;DHT22;6611;52.604;13.438;2022-12-18T15:15:57;-3.78;89.08
13091;DHT22;6611;52.604;13.438;2022-12-18T15:21:08;-3.55;88.77
13091;DHT22;6611;52.604;13.438;2022-12-18T15:26:14;-3.37;87.92
13091;DHT22;6611;52.604;13.438;2022-12-18T15:31:24;-3.50;87.86
13091;DHT22;6611;52.604;13.438;2022-12-18T15:36:30;-3.58;87.98
13091;DHT22;6611;52.604;13.438;2022-12-18T15:41:34;-3.76;88.49
13091;DHT22;6611;52.604;13.438;2022-12-18T15:46:36;-3.68;88.23
13091;DHT22;6611;52.604;13.438;2022-12-18T15:51:38;-3.78;88.74
13091;DHT22;6611;52.604;13.438;2022-12-18T15:56:41;-3.59;88.44
13091;DHT22;6611;52.604;13.438;2022-12-18T16:02:00;-3.48;87.98
13091;DHT22;6611;52.604;13.438;2022-12-18T16:07:02;-3.58;88.00
13091;DHT22;6611;52.604;13.438;2022-12-18T16:12:06;-3.75;88.42
13091;DHT22;6611;52.604;13.438;2022-12-18T16:17:12;-3.79;88.25
13091;DHT22;6611;52.604;13.438;2022-12-18T16:22:19;-3.76;87.77
13091;DHT22;6611;52.604;13.438;2022-12-18T16:27:24;-3.89;87.65
13091;DHT22;6611;52.604;13.438;2022-12-18T16:32:25;-3.99;87.85
13091;DHT22;6611;52.604;13.438;2022-12-18T16:37:27;-3.97;88.08
13091;DHT22;6611;52.604;13.438;2022-12-18T16:42:30;-3.78;88.02
13091;DHT22;6611;52.604;13.438;2022-12-18T16:47:32;-3.74;87.90
13091;DHT22;6611;52.604;13.438;2022-12-18T16:52:34;-3.74;87.33
13091;DHT22;6611;52.604;13.438;2022-12-18T16:57:37;-3.76;87.90
13091;DHT22;6611;52.604;13.438;2022-12-18T17:02:39;-3.67;87.45
13091;DHT22;6611;52.604;13.438;2022-12-18T17:07:40;-3.52;86.95
13091;DHT22;6611;52.604;13.438;2022-12-18T17:12:43;-3.40;86.91
13091;DHT22;6611;52.604;13.438;2022-12-18T17:17:45;-3.54;87.07
13091;DHT22;6611;52.604;13.438;2022-12-18T17:22:47;-3.55;86.48
13091;DHT22;6611;52.604;13.438;2022-12-18T17:27:51;-3.62;86.74
13091;DHT22;6611;52.604;13.438;2022-12-18T17:32:52;-3.68;86.71
13091;DHT22;6611;52.604;13.438;2022-12-18T17:37:54;-3.87;86.85
13091;DHT22;6611;52.604;13.438;2022-12-18T17:42:57;-3.78;86.75
13091;DHT22;6611;52.604;13.438;2022-12-18T17:47:59;-3.71;86.74
13091;DHT22;6611;52.604;13.438;2022-12-18T17:53:01;-3.78;86.54
13091;DHT22;6611;52.604;13.438;2022-12-18T17:58:04;-3.83;86.24
13091;DHT22;6611;52.604;13.438;2022-12-18T18:03:06;-3.92;87.01
13091;DHT22;6611;52.604;13.438;2022-12-18T18:08:08;-4.06;87.42
13091;DHT22;6611;52.604;13.438;2022-12-18T18:13:17;-4.00;87.14
13091;DHT22;6611;52.604;13.438;2022-12-18T18:18:36;-4.10;87.32
13091;DHT22;6611;52.604;13.438;2022-12-18T18:23:39;-4.21;87.41
13091;DHT22;6611;52.604;13.438;2022-12-18T18:28:42;-4.04;86.82
13091;DHT22;6611;52.604;13.438;2022-12-18T18:33:43;-4.17;87.00
13091;DHT22;6611;52.604;13.438;2022-12-18T18:38:45;-4.24;87.23
13091;DHT22;6611;52.604;13.438;2022-12-18T18:43:48;-4.35;87.26
13091;DHT22;6611;52.604;13.438;2022-12-18T18:48:50;-4.22;86.86
13091;DHT22;6611;52.604;13.438;2022-12-18T18:53:52;-4.37;87.21
13091;DHT22;6611;52.604;13.438;2022-12-18T18:58:56;-4.38;87.28
13091;DHT22;6611;52.604;13.438;2022-12-18T19:03:58;-4.34;87.09
13091;DHT22;6611;52.604;13.438;2022-12-18T19:09:01;-4.41;86.93
13091;DHT22;6611;52.604;13.438;2022-12-18T19:14:07;-4.45;87.09
13091;DHT22;6611;52.604;13.438;2022-12-18T19:19:10;-4.40;86.49
13091;DHT22;6611;52.604;13.438;2022-12-18T19:24:12;-4.54;87.20
13091;DHT22;6611;52.604;13.438;2022-12-18T19:29:15;-4.49;87.08
13091;DHT22;6611;52.604;13.438;2022-12-18T19:34:16;-4.44;86.81
13091;DHT22;6611;52.604;13.438;2022-12-18T19:39:19;-4.55;86.86
13091;DHT22;6611;52.604;13.438;2022-12-18T19:44:22;-4.54;87.05
13091;DHT22;6611;52.604;13.438;2022-12-18T19:49:24;-4.54;86.47
13091;DHT22;6611;52.604;13.438;2022-12-18T19:54:25;-4.47;86.60
13091;DHT22;6611;52.604;13.438;2022-12-18T19:59:28;-4.40;86.31
13091;DHT22;6611;52.604;13.438;2022-12-18T20:04:30;-4.38;85.72
13091;DHT22;6611;52.604;13.438;2022-12-18T20:09:32;-4.47;85.85
13091;DHT22;6611;52.604;13.438;2022-12-18T20:14:36;-4.31;85.43
13091;DHT22;6611;52.604;13.438;2022-12-18T20:19:38;-4.45;85.83
13091;DHT22;6611;52.604;13.438;2022-12-18T20:24:41;-4.38;85.67
13091;DHT22;6611;52.604;13.438;2022-12-18T20:29:44;-4.27;84.85
13091;DHT22;6611;52.604;13.438;2022-12-18T20:34:47;-4.38;84.86
13091;DHT22;6611;52.604;13.438;2022-12-18T20:39:49;-4.44;85.28
13091;DHT22;6611;52.604;13.438;2022-12-18T20:44:53;-4.44;85.61
13091;DHT22;6611;52.604;13.438;2022-12-18T20:49:55;-4.28;84.99
13091;DHT22;6611;52.604;13.438;2022-12-18T20:54:57;-4.32;84.48
13091;DHT22;6611;52.604;13.438;2022-12-18T21:00:00;-4.40;84.86
13091;DHT22;6611;52.604;13.438;2022-12-18T21:05:01;-4.49;85.21
13091;DHT22;6611;52.604;13.438;2022-12-18T21:10:04;-4.41;85.22
13091;DHT22;6611;52.604;13.438;2022-12-18T21:15:09;-4.30;84.42
13091;DHT22;6611;52.604;13.438;2022-12-18T21:20:11;-4.32;84.79
13091;DHT22;6611;52.604;13.438;2022-12-18T21:25:14;-4.18;84.25
13091;DHT22;6611;52.604;13.438;2022-12-18T21:30:17;-4.38;84.58
13091;DHT22;6611;52.604;13.438;2022-12-18T21:35:19;-4.31;84.29
13091;DHT22;6611;52.604;13.438;2022-12-18T21:40:20;-4.21;83.95
13091;DHT22;6611;52.604;13.438;2022-12-18T21:45:23;-4.15;83.65
13091;DHT22;6611;52.604;13.438;2022-12-18T21:50:25;-4.14;83.60
13091;DHT22;6611;52.604;13.438;2022-12-18T21:55:27;-3.97;83.54
13091;DHT22;6611;52.604;13.438;2022-12-18T22:00:30;-3.87;82.63
13091;DHT22;6611;52.604;13.438;2022-12-18T22:05:32;-3.93;82.41
13091;DHT22;6611;52.604;13.438;2022-12-18T22:10:34;-4.03;82.88
13091;DHT22;6611;52.604;13.438;2022-12-18T22:15:37;-4.00;82.84
13091;DHT22;6611;52.604;13.438;2022-12-18T22:20:39;-3.93;82.55
13091;DHT22;6611;52.604;13.438;2022-12-18T22:25:41;-3.95;82.86
13091;DHT22;6611;52.604;13.438;2022-12-18T22:30:44;-3.99;82.57
13091;DHT22;6611;52.604;13.438;2022-12-18T22:35:45;-4.02;82.52
13091;DHT22;6611;52.604;13.438;2022-12-18T22:40:47;-4.07;82.95
13091;DHT22;6611;52.604;13.438;2022-12-18T22:45:50;-3.95;82.72
13091;DHT22;6611;52.604;13.438;2022-12-18T22:50:52;-3.93;82.18
13091;DHT22;6611;52.604;13.438;2022-12-18T22:55:59;-4.04;82.64
13091;DHT22;6611;52.604;13.438;2022-12-18T23:01:02;-3.78;81.86
13091;DHT22;6611;52.604;13.438;2022-12-18T23:06:05;-3.87;82.24
13091;DHT22;6611;52.604;13.438;2022-12-18T23:11:07;-3.79;81.89
13091;DHT22;6611;52.604;13.438;2022-12-18T23:16:12;-3.79;81.68
13091;DHT22;6611;52.604;13.438;2022-12-18T23:21:17;-3.79;81.56
13091;DHT22;6611;52.604;13.438;2022-12-18T23:26:21;-3.92;81.89
13091;DHT22;6611;52.604;13.438;2022-12-18T23:31:26;-3.89;81.78
13091;DHT22;6611;52.604;13.438;2022-12-18T23:36:28;-3.95;81.86
13091;DHT22;6611;52.604;13.438;2022-12-18T23:41:31;-3.99;82.08
13091;DHT22;6611;52.604;13.438;2022-12-18T23:46:34;-3.89;81.88
13091;DHT22;6611;52.604;13.438;2022-12-18T23:51:36;-3.96;81.75
13091;DHT22;6611;52.604;13.438;2022-12-18T23:56:38;-3.86;81.60
